Time;durP1;ratioP1;P1;durP2;ratioP2;P2;SDS_P1;SDS_P2;PMS_P1;PMS_P2;Temp;Humidity;BMP_temperature;BMP_pressure;BME280_temperature;BME280_humidity;BME280_pressure;Samples;Min_cycle;Max_cycle;Signal;HPM_P1;HPM_P2
2023/08/21 00:02:29;;;;;;;25.27;15.10;;;;;;;23.12;100.00;93322.22;5089250;28;20047;-80
2023/08/21 00:04:54;;;;;;;18.75;14.05;;;;;;;22.98;100.00;93312.69;5089566;28;20024;-80
2023/08/21 00:07:21;;;;;;;22.00;13.57;;;;;;;23.05;100.00;93325.47;5088717;28;20024;-80
2023/08/21 00:09:50;;;;;;;20.83;14.07;;;;;;;23.02;100.00;93326.19;5083934;28;20041;-81
2023/08/21 00:12:15;;;;;;;21.73;13.80;;;;;;;22.97;100.00;93321.84;5088615;28;20044;-81
2023/08/21 00:14:43;;;;;;;23.38;13.35;;;;;;;22.98;100.00;93317.28;5069867;28;20033;-81
2023/08/21 00:17:08;;;;;;;19.77;13.25;;;;;;;22.95;100.00;93320.63;5087722;28;20036;-81
2023/08/21 00:19:34;;;;;;;18.38;13.32;;;;;;;22.93;100.00;93320.19;5088689;28;20028;-81
2023/08/21 00:22:00;;;;;;;17.50;12.82;;;;;;;22.92;100.00;93314.09;5087957;28;20044;-81
2023/08/21 00:24:26;;;;;;;15.50;12.63;;;;;;;22.93;100.00;93309.53;5088836;28;20055;-81
2023/08/21 00:26:52;;;;;;;22.20;13.10;;;;;;;22.91;100.00;93312.53;5087558;28;20032;-80
2023/08/21 00:29:17;;;;;;;19.75;13.02;;;;;;;22.92;100.00;93311.41;5086547;28;20474;-80
2023/08/21 00:31:44;;;;;;;19.33;13.35;;;;;;;22.90;100.00;93310.19;5087271;28;20401;-79
2023/08/21 00:34:09;;;;;;;20.50;12.93;;;;;;;22.89;100.00;93319.31;5082377;28;20036;-80
2023/08/21 00:36:35;;;;;;;21.95;12.95;;;;;;;22.89;100.00;93319.31;5088470;28;20041;-81
2023/08/21 00:39:01;;;;;;;19.67;12.90;;;;;;;22.84;100.00;93310.44;5070823;28;20420;-80
2023/08/21 00:41:34;;;;;;;20.95;14.00;;;;;;;22.81;100.00;93313.81;5088021;28;20077;-80
2023/08/21 00:44:01;;;;;;;20.10;13.95;;;;;;;22.84;100.00;93312.34;5070226;28;20040;-80
2023/08/21 00:46:27;;;;;;;18.13;12.88;;;;;;;22.79;100.00;93309.94;5070525;28;20059;-80
2023/08/21 00:48:54;;;;;;;16.25;12.52;;;;;;;22.80;100.00;93311.47;5069490;28;20032;-80
2023/08/21 00:51:20;;;;;;;22.83;13.10;;;;;;;22.78;100.00;93303.81;5053462;28;20104;-79
2023/08/21 00:53:45;;;;;;;19.75;12.93;;;;;;;22.79;100.00;93304.59;5086720;28;20040;-80
2023/08/21 00:56:12;;;;;;;18.63;12.95;;;;;;;22.72;100.00;93299.06;5086759;28;20048;-79
2023/08/21 00:58:39;;;;;;;21.40;12.10;;;;;;;22.72;100.00;93304.41;5068369;28;20040;-80
2023/08/21 01:01:05;;;;;;;19.17;12.35;;;;;;;22.69;100.00;93300.53;5069260;28;20036;-80
2023/08/21 01:03:35;;;;;;;21.30;13.32;;;;;;;22.71;100.00;93308.19;5053383;28;20047;-80
2023/08/21 01:06:01;;;;;;;19.67;13.23;;;;;;;22.68;100.00;93300.88;5068708;28;20040;-80
2023/08/21 01:08:35;;;;;;;24.17;12.70;;;;;;;22.63;100.00;93307.25;5087196;28;20033;-80
2023/08/21 01:11:26;;;;;;;18.27;12.43;;;;;;;22.60;100.00;93302.56;5087042;28;20032;-80
2023/08/21 01:14:18;;;;;;;18.67;13.02;;;;;;;22.55;100.00;93305.50;5070928;28;20043;-80
2023/08/21 01:16:51;;;;;;;20.85;12.27;;;;;;;22.51;100.00;93312.63;5064573;28;20492;-80
2023/08/21 01:19:48;;;;;;;20.52;12.10;;;;;;;22.51;100.00;93310.72;5049544;28;20085;-80
2023/08/21 01:22:14;;;;;;;16.75;12.07;;;;;;;22.49;100.00;93310.28;5055687;28;20124;-80
2023/08/21 01:24:42;;;;;;;21.55;11.70;;;;;;;22.53;100.00;93307.72;5049274;28;20081;-79
2023/08/21 01:27:09;;;;;;;25.38;12.35;;;;;;;22.49;100.00;93312.97;5065611;28;20067;-80
2023/08/21 01:29:35;;;;;;;20.00;12.63;;;;;;;22.46;100.00;93308.31;5066213;28;20056;-80
2023/08/21 01:32:26;;;;;;;19.98;12.93;;;;;;;22.39;100.00;93308.91;5066466;28;20056;-80
2023/08/21 01:34:56;;;;;;;21.45;13.77;;;;;;;22.35;100.00;93309.91;5049029;28;20037;-80
2023/08/21 01:37:23;;;;;;;22.85;13.93;;;;;;;22.27;100.00;93300.16;5066783;28;20032;-80
2023/08/21 01:39:49;;;;;;;21.45;12.88;;;;;;;22.27;100.00;93308.16;5048182;28;20037;-80
2023/08/21 01:42:14;;;;;;;18.33;12.43;;;;;;;22.26;100.00;93304.72;5067175;28;20116;-80
2023/08/21 01:44:40;;;;;;;17.63;12.52;;;;;;;22.29;100.00;93305.94;5047907;28;20044;-79
2023/08/21 01:47:06;;;;;;;19.52;13.68;;;;;;;22.25;100.00;93297.84;5048120;28;20060;-80
2023/08/21 01:49:32;;;;;;;19.02;13.05;;;;;;;22.28;100.00;93305.16;5066443;28;20102;-80
2023/08/21 01:51:57;;;;;;;22.25;13.90;;;;;;;22.27;100.00;93300.16;5064735;28;20047;-81
2023/08/21 01:54:24;;;;;;;25.08;13.95;;;;;;;22.23;100.00;93298.19;5032184;28;20067;-80
2023/08/21 01:56:50;;;;;;;24.48;14.52;;;;;;;22.21;100.00;93297.75;5030746;28;20049;-80
2023/08/21 01:59:17;;;;;;;21.50;13.25;;;;;;;22.20;100.00;93300.69;5065333;28;20120;-81
2023/08/21 02:01:43;;;;;;;20.77;13.50;;;;;;;22.17;100.00;93296.06;5066137;28;20044;-80
2023/08/21 02:04:09;;;;;;;27.27;14.30;;;;;;;22.17;100.00;93296.06;5048875;28;20029;-79
2023/08/21 02:06:35;;;;;;;25.55;14.98;;;;;;;22.16;100.00;93305.97;5047940;28;20036;-80
2023/08/21 02:09:00;;;;;;;25.48;14.90;;;;;;;22.16;100.00;93300.63;5064812;28;20049;-80
2023/08/21 02:11:26;;;;;;;20.45;14.80;;;;;;;22.17;100.00;93301.38;5063594;28;20433;-80
2023/08/21 02:13:52;;;;;;;25.15;14.60;;;;;;;22.13;100.00;93301.28;5014443;28;20036;-80
2023/08/21 02:16:17;;;;;;;25.10;14.00;;;;;;;22.15;100.00;93299.06;5062441;28;20051;-79
2023/08/21 02:18:43;;;;;;;24.40;13.90;;;;;;;22.15;100.00;93298.28;5047105;28;20040;-79
2023/08/21 02:21:09;;;;;;;24.27;15.90;;;;;;;22.15;100.00;93307.06;5065953;28;20124;-79
2023/08/21 02:23:34;;;;;;;21.55;15.32;;;;;;;22.15;100.00;93308.94;5066066;28;20091;-80
2023/08/21 02:26:00;;;;;;;19.63;14.07;;;;;;;22.13;100.00;93303.94;5048480;28;20045;-79
2023/08/21 02:28:26;;;;;;;20.88;13.88;;;;;;;22.10;100.00;93301.97;5066176;28;20033;-79
2023/08/21 02:30:51;;;;;;;23.20;14.07;;;;;;;22.10;100.00;93301.97;5063109;28;20036;-79
2023/08/21 02:33:17;;;;;;;21.98;14.35;;;;;;;22.10;100.00;93301.97;5046131;28;20045;-79
2023/08/21 02:35:43;;;;;;;19.50;13.63;;;;;;;22.10;100.00;93301.97;5065475;28;20037;-80
2023/08/21 02:38:10;;;;;;;19.80;13.63;;;;;;;22.09;100.00;93297.75;5061575;28;20056;-80
2023/08/21 02:40:36;;;;;;;21.88;13.75;;;;;;;22.06;100.00;93298.41;5084218;28;20105;-79
2023/08/21 02:43:02;;;;;;;21.05;14.80;;;;;;;22.07;100.00;93294.66;5082670;28;20047;-79
2023/08/21 02:45:27;;;;;;;26.38;15.35;;;;;;;22.08;100.00;93304.19;5083289;28;20071;-79
2023/08/21 02:47:56;;;;;;;24.55;14.80;;;;;;;22.02;100.00;93294.88;5052063;28;20021;-79
2023/08/21 02:50:22;;;;;;;24.08;14.32;;;;;;;22.01;100.00;93296.78;5086231;28;20040;-79
2023/08/21 02:52:47;;;;;;;23.33;14.05;;;;;;;22.04;100.00;93297.97;5068699;28;20094;-79
2023/08/21 02:55:14;;;;;;;24.45;14.45;;;;;;;22.02;100.00;93294.88;5084757;28;20036;-79
2023/08/21 02:57:39;;;;;;;25.10;15.25;;;;;;;22.01;100.00;93296.78;5084805;28;20066;-79
2023/08/21 03:00:12;;;;;;;21.85;14.32;;;;;;;21.93;100.00;93288.91;5086654;28;20048;-80
2023/08/21 03:02:38;;;;;;;23.25;14.65;;;;;;;21.96;100.00;93297.00;5084064;28;20127;-80
2023/08/21 03:05:04;;;;;;;21.05;15.10;;;;;;;21.95;100.00;93297.34;5085681;28;20028;-80
2023/08/21 03:07:30;;;;;;;23.90;14.85;;;;;;;21.91;100.00;93288.47;5068732;28;20049;-80
2023/08/21 03:10:01;;;;;;;21.75;15.70;;;;;;;21.94;100.00;93293.91;5085287;28;20039;-79
2023/08/21 03:12:29;;;;;;;22.60;14.93;;;;;;;21.92;100.00;93285.47;5068574;28;20036;-80
2023/08/21 03:14:55;;;;;;;27.40;15.27;;;;;;;21.94;100.00;93283.25;5086147;28;20041;-79
2023/08/21 03:17:20;;;;;;;25.52;15.68;;;;;;;21.94;100.00;93290.47;5084738;28;20149;-80
2023/08/21 03:19:46;;;;;;;21.48;15.43;;;;;;;21.93;100.00;93288.91;5067191;28;20071;-80
2023/08/21 03:22:13;;;;;;;22.85;15.07;;;;;;;21.93;100.00;93286.25;5088813;28;20351;-80
2023/08/21 03:24:39;;;;;;;27.73;14.98;;;;;;;21.93;100.00;93286.25;5048330;28;20045;-80
2023/08/21 03:27:06;;;;;;;20.55;14.30;;;;;;;21.89;100.00;93282.72;5050522;28;20083;-79
2023/08/21 03:29:31;;;;;;;25.92;15.15;;;;;;;21.90;100.00;93286.91;5050615;28;20037;-79
2023/08/21 03:31:57;;;;;;;21.92;15.15;;;;;;;21.87;100.00;93280.38;5050601;28;20098;-80
2023/08/21 03:34:23;;;;;;;23.90;15.93;;;;;;;21.86;100.00;93280.72;5068906;28;20056;-80
2023/08/21 03:36:53;;;;;;;27.80;16.17;;;;;;;21.85;100.00;93284.50;5050594;28;20108;-80
2023/08/21 03:39:24;;;;;;;23.92;15.90;;;;;;;21.85;100.00;93281.84;5018501;28;20475;-79
2023/08/21 03:41:53;;;;;;;21.63;15.65;;;;;;;21.85;100.00;93281.84;5074068;28;20037;-79
2023/08/21 03:44:19;;;;;;;19.50;15.52;;;;;;;21.82;100.00;93286.72;5082977;28;20118;-80
2023/08/21 03:46:44;;;;;;;22.80;15.45;;;;;;;21.83;100.00;93288.25;5087594;28;20056;-80
2023/08/21 03:49:11;;;;;;;24.92;16.08;;;;;;;21.83;100.00;93287.50;5088164;28;20041;-80
2023/08/21 03:51:36;;;;;;;25.92;17.42;;;;;;;21.85;100.00;93289.81;5089257;28;20020;-79
2023/08/21 03:54:05;;;;;;;27.77;18.45;;;;;;;21.85;100.00;93289.81;5070194;28;20048;-80
2023/08/21 03:56:30;;;;;;;27.45;18.30;;;;;;;21.82;100.00;93284.06;5087704;28;20060;-80
2023/08/21 03:58:56;;;;;;;24.77;18.17;;;;;;;21.81;100.00;93285.16;5070229;28;20036;-80
2023/08/21 04:01:23;;;;;;;27.45;19.05;;;;;;;21.81;100.00;93290.47;5087412;28;20087;-80
2023/08/21 04:03:49;;;;;;;27.35;18.58;;;;;;;21.82;100.00;93291.28;5087049;28;20039;-79
2023/08/21 04:06:15;;;;;;;29.10;18.88;;;;;;;21.78;100.00;93291.16;5069929;28;20111;-80
2023/08/21 04:08:41;;;;;;;29.55;19.02;;;;;;;21.80;100.00;93294.28;5087670;28;20036;-79
2023/08/21 04:11:07;;;;;;;28.58;19.58;;;;;;;21.79;100.00;93291.94;5076470;28;20405;-79
2023/08/21 04:13:32;;;;;;;30.02;19.30;;;;;;;21.78;100.00;93291.16;5086679;28;20060;-79
2023/08/21 04:15:58;;;;;;;28.88;18.75;;;;;;;21.78;100.00;93299.16;5086672;28;20051;-80
2023/08/21 04:18:24;;;;;;;33.38;19.98;;;;;;;21.73;100.00;93291.41;5085616;28;20036;-79
2023/08/21 04:20:50;;;;;;;29.95;18.20;;;;;;;21.73;100.00;93294.06;5087739;28;20042;-79
2023/08/21 04:23:16;;;;;;;32.00;19.27;;;;;;;21.73;100.00;93299.41;5087399;28;20028;-80
2023/08/21 04:25:42;;;;;;;23.58;17.58;;;;;;;21.72;100.00;93297.84;5087168;28;20498;-80
2023/08/21 04:28:09;;;;;;;32.13;19.15;;;;;;;21.73;100.00;93294.06;5070292;28;20042;-80
2023/08/21 04:30:35;;;;;;;28.85;19.00;;;;;;;21.76;100.00;93292.63;5087136;28;20025;-79
2023/08/21 04:33:01;;;;;;;27.05;18.33;;;;;;;21.74;100.00;93289.50;5085681;28;20070;-80
2023/08/21 04:35:27;;;;;;;28.33;18.55;;;;;;;21.74;100.00;93295.59;5086705;28;20024;-80
2023/08/21 04:37:55;;;;;;;29.25;18.80;;;;;;;21.74;100.00;93295.59;5070106;28;20020;-79
2023/08/21 04:40:24;;;;;;;25.63;18.65;;;;;;;21.71;100.00;93296.28;5087211;28;20040;-79
2023/08/21 04:42:50;;;;;;;25.88;18.20;;;;;;;21.69;100.00;93293.19;5068980;28;20036;-79
2023/08/21 04:45:17;;;;;;;27.25;19.00;;;;;;;21.66;100.00;93293.88;5042722;28;20048;-80
2023/08/21 04:47:43;;;;;;;26.60;18.05;;;;;;;21.72;100.00;93292.50;5024617;28;20078;-79
2023/08/21 04:50:09;;;;;;;27.27;17.98;;;;;;;21.76;100.00;93295.28;5057863;28;20465;-79
2023/08/21 04:52:34;;;;;;;31.90;17.70;;;;;;;21.79;100.00;93300.69;5057247;28;20068;-79
2023/08/21 04:55:00;;;;;;;25.48;16.98;;;;;;;21.80;100.00;93304.16;5064440;28;20037;-79
2023/08/21 04:57:27;;;;;;;28.73;17.77;;;;;;;21.81;100.00;93305.69;5067156;28;20044;-78
2023/08/21 04:59:53;;;;;;;24.45;16.70;;;;;;;21.82;100.00;93302.72;5072248;28;20067;-79
2023/08/21 05:02:21;;;;;;;26.08;17.17;;;;;;;21.85;100.00;93301.25;5048756;28;20078;-79
2023/08/21 05:04:49;;;;;;;29.40;16.60;;;;;;;21.89;100.00;93317.38;5038970;28;20128;-79
2023/08/21 05:07:15;;;;;;;23.42;16.00;;;;;;;21.90;100.00;93309.00;5038307;28;20044;-79
2023/08/21 05:09:42;;;;;;;21.27;16.48;;;;;;;21.95;100.00;93313.34;5037151;28;20072;-78
2023/08/21 05:12:10;;;;;;;28.42;16.35;;;;;;;21.99;100.00;93322.22;5038092;28;20486;-79
2023/08/21 05:14:39;;;;;;;23.60;16.15;;;;;;;22.03;100.00;93315.88;5038831;28;20044;-80
2023/08/21 05:17:09;;;;;;;21.65;16.35;;;;;;;22.09;100.00;93315.63;5038328;28;20041;-79
2023/08/21 05:19:35;;;;;;;22.17;15.27;;;;;;;22.16;100.00;93319.28;5056404;28;20033;-79
2023/08/21 05:22:01;;;;;;;21.05;16.10;;;;;;;22.21;100.00;93316.41;5038683;28;20035;-79
2023/08/21 05:24:29;;;;;;;22.70;15.43;;;;;;;22.29;100.00;93324.59;5037966;28;20041;-80
2023/08/21 05:27:05;;;;;;;25.60;15.45;;;;;;;22.35;100.00;93325.91;5038009;28;20434;-79
2023/08/21 05:29:30;;;;;;;24.48;15.77;;;;;;;22.42;100.00;93323.44;5037496;28;20040;-79
2023/08/21 05:31:56;;;;;;;23.15;15.82;;;;;;;22.50;100.00;93330.53;5038071;28;20448;-80
2023/08/21 05:34:28;;;;;;;24.00;15.50;;;;;;;22.61;100.00;93328.91;5055768;28;20048;-79
2023/08/21 05:36:56;;;;;;;18.90;14.68;;;;;;;22.73;100.00;93327.31;5037559;28;20041;-79
2023/08/21 05:39:22;;;;;;;20.58;15.10;;;;;;;22.82;100.00;93331.38;5037566;28;20037;-80
2023/08/21 05:41:49;;;;;;;24.55;15.05;;;;;;;22.97;100.00;93337.84;5037791;28;20040;-79
2023/08/21 05:44:28;;;;;;;22.58;15.82;;;;;;;23.11;100.00;93336.69;5037474;28;20041;-80
2023/08/21 05:46:54;;;;;;;19.27;15.20;;;;;;;23.25;100.00;93337.81;5054448;28;20037;-79
2023/08/21 05:49:24;;;;;;;23.67;15.25;;;;;;;23.37;100.00;93336.97;5037725;28;20077;-79
2023/08/21 05:51:50;;;;;;;21.70;15.23;;;;;;;23.51;100.00;93335.72;5037685;28;20132;-80
2023/08/21 05:54:15;;;;;;;25.20;15.65;;;;;;;23.67;100.00;93341.84;5055711;28;20503;-80
2023/08/21 05:56:42;;;;;;;21.33;14.82;;;;;;;23.80;100.00;93340.66;5034117;28;20045;-80
2023/08/21 05:59:10;;;;;;;19.10;14.80;;;;;;;23.96;100.00;93343.28;5035625;28;20098;-80
2023/08/21 06:01:38;;;;;;;23.38;15.55;;;;;;;24.09;100.00;93335.88;5033973;28;20041;-80
2023/08/21 06:04:04;;;;;;;26.13;16.02;;;;;;;24.21;100.00;93338.44;5034251;28;20065;-80
2023/08/21 06:06:55;;;;;;;23.02;14.93;;;;;;;24.44;100.00;93345.78;5035719;28;20115;-80
2023/08/21 06:09:21;;;;;;;26.33;17.80;;;;;;;24.58;100.00;93335.38;5034936;28;20037;-77
2023/08/21 06:11:47;;;;;;;26.52;16.48;;;;;;;24.61;100.00;93339.25;5034832;28;20037;-80
2023/08/21 06:14:17;;;;;;;24.33;17.92;;;;;;;24.67;100.00;93333.25;5034175;28;20113;-82
2023/08/21 06:17:03;;;;;;;24.30;17.45;;;;;;;24.67;100.00;93332.47;5033876;28;20434;-79
2023/08/21 06:19:29;;;;;;;27.60;17.40;;;;;;;24.68;100.00;93332.13;5033836;28;20045;-81
2023/08/21 06:22:08;;;;;;;28.15;17.20;;;;;;;25.22;100.00;93341.16;5034064;28;20033;-81
2023/08/21 06:24:33;;;;;;;31.13;17.45;;;;;;;25.69;100.00;93336.50;5035895;28;20509;-82
2023/08/21 06:27:02;;;;;;;26.35;16.52;;;;;;;26.06;100.00;93343.97;5018863;28;20037;-82
2023/08/21 06:29:28;;;;;;;27.98;15.70;;;;;;;26.39;100.00;93340.56;5034918;28;20025;-82
2023/08/21 06:31:54;;;;;;;30.63;16.45;;;;;;;26.97;100.00;93347.38;5052599;28;20044;-82
2023/08/21 06:34:21;;;;;;;25.65;16.85;;;;;;;27.08;100.00;93340.19;5047870;28;20041;-83
2023/08/21 06:36:46;;;;;;;21.15;16.60;;;;;;;27.43;100.00;93340.94;5053532;28;20413;-83
2023/08/21 06:39:12;;;;;;;23.85;15.68;;;;;;;27.97;100.00;93342.88;5056116;28;20036;-83
2023/08/21 06:41:37;;;;;;;29.50;15.85;;;;;;;28.46;100.00;93340.81;5056801;28;20132;-80
2023/08/21 06:44:03;;;;;;;22.08;15.43;;;;;;;28.86;100.00;93347.13;5037164;28;20038;-82
2023/08/21 06:46:29;;;;;;;24.40;15.15;;;;;;;29.31;100.00;93341.47;5052690;28;20151;-81
2023/08/21 06:48:55;;;;;;;24.23;15.30;;;;;;;29.36;100.00;93346.47;5033398;28;20402;-81
2023/08/21 06:51:20;;;;;;;20.63;14.57;;;;;;;29.61;100.00;93351.88;5053085;28;20509;-81
2023/08/21 06:53:46;;;;;;;23.13;14.50;;;;;;;29.62;100.00;93346.13;5053066;28;20441;-80
2023/08/21 06:56:12;;;;;;;23.75;15.43;;;;;;;29.87;100.00;93343.41;5059387;28;20052;-82
2023/08/21 06:58:38;;;;;;;24.65;15.25;;;;;;;29.90;100.00;93347.28;5089423;28;20051;-82
2023/08/21 07:01:03;;;;;;;20.90;14.20;;;;;;;29.89;100.00;93345.75;5086949;28;20082;-82
2023/08/21 07:03:29;;;;;;;24.33;15.45;;;;;;;29.35;100.00;93344.97;5081813;28;20033;-82
2023/08/21 07:05:56;;;;;;;28.17;15.85;;;;;;;28.90;100.00;93347.16;5084228;28;20028;-82
2023/08/21 07:08:23;;;;;;;24.67;15.73;;;;;;;28.67;100.00;93348.25;5059920;28;20050;-83
2023/08/21 07:10:48;;;;;;;25.45;16.60;;;;;;;28.47;100.00;93346.97;5076582;28;20040;-81
2023/08/21 07:13:14;;;;;;;22.45;15.68;;;;;;;28.37;100.00;93345.75;5083400;28;20040;-82
2023/08/21 07:15:39;;;;;;;30.80;16.42;;;;;;;28.42;100.00;93346.19;5061213;28;20099;-81
2023/08/21 07:18:05;;;;;;;22.23;15.75;;;;;;;28.51;100.00;93342.41;5077170;28;20294;-82
2023/08/21 07:20:31;;;;;;;24.25;15.27;;;;;;;28.27;100.00;93349.19;5082622;28;20071;-80
2023/08/21 07:22:56;;;;;;;24.10;15.25;;;;;;;28.30;100.00;93343.81;5066867;28;20379;-81
2023/08/21 07:25:22;;;;;;;22.50;15.00;;;;;;;28.44;100.00;93343.91;5067163;28;20087;-80
2023/08/21 07:27:47;;;;;;;27.02;16.05;;;;;;;28.32;100.00;93351.53;5048785;28;20075;-83
2023/08/21 07:30:17;;;;;;;25.63;16.35;;;;;;;28.23;100.00;93343.78;5086827;28;20028;-81
2023/08/21 07:32:43;;;;;;;25.98;16.00;;;;;;;28.06;100.00;93341.78;5085934;28;20055;-80
2023/08/21 07:35:09;;;;;;;22.10;16.13;;;;;;;27.90;100.00;93350.91;5102407;28;20059;-81
2023/08/21 07:37:35;;;;;;;25.00;16.45;;;;;;;27.86;100.00;93358.19;5070283;28;20033;-83
2023/08/21 07:40:00;;;;;;;22.92;16.13;;;;;;;27.65;100.00;93348.00;5084752;28;20119;-84
2023/08/21 07:42:26;;;;;;;27.65;16.75;;;;;;;27.66;100.00;93354.16;5051610;28;20056;-85
2023/08/21 07:44:51;;;;;;;28.05;15.32;;;;;;;27.72;100.00;93356.13;5065288;28;20037;-81
2023/08/21 07:47:17;;;;;;;28.17;16.60;;;;;;;27.80;100.00;93354.25;5070578;28;20032;-81
2023/08/21 07:49:43;;;;;;;24.88;17.90;;;;;;;27.88;100.00;93357.81;5104350;28;20103;-82
2023/08/21 07:52:08;;;;;;;24.65;17.08;;;;;;;27.99;100.00;93351.34;5079754;28;20032;-81
2023/08/21 07:54:34;;;;;;;20.00;16.08;;;;;;;28.09;100.00;93354.47;5072092;28;20102;-83
2023/08/21 07:56:59;;;;;;;24.90;16.95;;;;;;;28.13;100.00;93360.66;5086266;28;20100;-82
2023/08/21 07:59:25;;;;;;;28.95;17.95;;;;;;;28.14;100.00;93346.81;5084522;28;20422;-82
2023/08/21 08:01:51;;;;;;;31.35;17.10;;;;;;;28.39;100.00;93355.03;5081976;28;20082;-82
2023/08/21 08:04:20;;;;;;;31.15;17.02;;;;;;;28.66;100.00;93352.06;5062568;28;20040;-81
2023/08/21 08:06:46;;;;;;;26.42;16.85;;;;;;;28.76;100.00;93354.03;5080955;28;20094;-82
2023/08/21 08:09:11;;;;;;;23.25;16.67;;;;;;;28.89;100.00;93354.47;5079980;28;20040;-82
2023/08/21 08:11:37;;;;;;;24.10;17.25;;;;;;;28.74;100.00;93350.97;5081492;28;20092;-81
2023/08/21 08:14:02;;;;;;;22.45;16.40;;;;;;;28.76;100.00;93354.03;5063879;28;20043;-81
2023/08/21 08:16:30;;;;;;;26.85;17.45;;;;;;;28.75;100.00;93349.78;5063241;28;20032;-82
2023/08/21 08:18:56;;;;;;;24.85;16.65;;;;;;;28.63;100.00;93340.13;5080920;28;20119;-81
2023/08/21 08:21:21;;;;;;;25.35;16.80;;;;;;;28.80;100.00;93341.38;5047706;28;20063;-82
2023/08/21 08:23:52;;;;;;;22.08;16.90;;;;;;;28.73;100.00;93346.72;5083088;28;20040;-83
2023/08/21 08:26:18;;;;;;;23.75;16.52;;;;;;;28.43;100.00;93346.97;5073627;28;20041;-81
2023/08/21 08:28:43;;;;;;;21.55;16.73;;;;;;;28.17;100.00;93342.63;5057641;28;20198;-81
2023/08/21 08:31:16;;;;;;;22.48;16.33;;;;;;;28.37;100.00;93340.38;5074140;28;20040;-80
2023/08/21 08:33:42;;;;;;;23.77;16.40;;;;;;;28.64;100.00;93344.38;5066253;28;20076;-82
2023/08/21 08:36:08;;;;;;;22.55;15.25;;;;;;;28.47;100.00;93346.97;5076344;28;20140;-82
2023/08/21 08:38:33;;;;;;;29.50;17.58;;;;;;;28.18;100.00;93344.16;5075785;28;20405;-80
2023/08/21 08:41:02;;;;;;;27.55;17.45;;;;;;;28.21;100.00;93338.00;5063815;28;20394;-81
2023/08/21 08:43:28;;;;;;;28.25;18.00;;;;;;;27.78;100.00;93340.41;5077002;28;20336;-81
2023/08/21 08:45:58;;;;;;;25.55;17.92;;;;;;;27.86;100.00;93336.66;5076870;28;20040;-82
2023/08/21 08:48:23;;;;;;;22.83;16.73;;;;;;;28.08;100.00;93339.47;5076717;28;20029;-82
2023/08/21 08:50:51;;;;;;;25.13;17.85;;;;;;;28.27;100.00;93339.19;5073198;28;20393;-82
2023/08/21 08:53:18;;;;;;;30.00;18.65;;;;;;;28.53;100.00;93338.19;5076467;28;20044;-81
2023/08/21 08:55:44;;;;;;;23.17;16.65;;;;;;;28.64;100.00;93332.81;5074149;28;20482;-81
2023/08/21 08:58:10;;;;;;;30.80;19.25;;;;;;;28.36;100.00;93331.53;5065976;28;20723;-84
2023/08/21 09:00:37;;;;;;;24.20;17.70;;;;;;;28.70;100.00;93336.69;5036561;28;20068;-80
2023/08/21 09:03:04;;;;;;;24.52;16.70;;;;;;;28.89;100.00;93327.53;5057770;28;20035;-81
2023/08/21 09:05:30;;;;;;;37.13;17.60;;;;;;;29.01;100.00;93337.19;5041785;28;20043;-81
2023/08/21 09:08:14;;;;;;;29.90;18.05;;;;;;;28.83;100.00;93332.50;5076019;28;20036;-81
2023/08/21 09:10:41;;;;;;;26.73;16.30;;;;;;;28.88;100.00;93334.06;5075563;28;20028;-80
2023/08/21 09:13:18;;;;;;;29.73;17.20;;;;;;;28.79;100.00;93326.34;5076001;28;20031;-82
2023/08/21 09:15:53;;;;;;;25.55;17.40;;;;;;;28.80;100.00;93327.91;5076142;28;20032;-80
2023/08/21 09:18:19;;;;;;;21.98;16.80;;;;;;;29.05;100.00;93327.94;5090541;28;20033;-82
2023/08/21 09:20:45;;;;;;;22.33;17.65;;;;;;;29.08;100.00;93323.75;5058406;28;20035;-82
2023/08/21 09:23:16;;;;;;;26.30;18.02;;;;;;;29.10;100.00;93326.81;5045815;28;20045;-82
2023/08/21 09:25:46;;;;;;;25.58;17.13;;;;;;;28.93;100.00;93325.59;5079684;28;20432;-82
2023/08/21 09:28:12;;;;;;;23.05;16.52;;;;;;;28.77;100.00;93325.19;5078096;28;20040;-81
2023/08/21 09:30:45;;;;;;;23.70;16.67;;;;;;;28.90;100.00;93320.97;5078091;28;20493;-83
2023/08/21 09:33:11;;;;;;;25.65;18.83;;;;;;;28.80;100.00;93316.31;5069780;28;20036;-82
2023/08/21 09:35:37;;;;;;;27.55;17.85;;;;;;;28.91;100.00;93317.16;5073091;28;20039;-81
2023/08/21 09:38:03;;;;;;;24.42;17.58;;;;;;;29.02;100.00;93309.06;5075342;28;20028;-81
2023/08/21 09:40:29;;;;;;;27.30;16.60;;;;;;;29.32;100.00;93302.56;5094679;28;20032;-81
2023/08/21 09:42:56;;;;;;;24.95;17.92;;;;;;;29.38;98.98;93296.41;5076426;28;20507;-81
2023/08/21 09:45:23;;;;;;;26.08;17.63;;;;;;;29.44;99.54;93300.25;5076985;28;20028;-81
2023/08/21 09:47:49;;;;;;;22.48;17.33;;;;;;;29.46;96.19;93297.97;5063815;28;20456;-81
2023/08/21 09:50:18;;;;;;;28.48;18.20;;;;;;;29.30;99.48;93299.50;5080953;28;20037;-82
2023/08/21 09:52:46;;;;;;;32.28;18.25;;;;;;;29.30;94.33;93296.81;5074990;28;20066;-81
2023/08/21 09:55:14;;;;;;;27.33;17.30;;;;;;;29.01;98.81;93292.13;5089042;28;20036;-81
2023/08/21 09:57:41;;;;;;;21.52;16.63;;;;;;;29.34;97.73;93295.66;5083112;28;20423;-81
2023/08/21 10:00:15;;;;;;;26.88;17.13;;;;;;;29.26;95.70;93294.09;5074844;28;20036;-81
2023/08/21 10:02:51;;;;;;;22.88;17.90;;;;;;;29.18;96.01;93287.94;5070385;28;20083;-80
2023/08/21 10:05:18;;;;;;;21.40;16.52;;;;;;;29.40;98.58;93286.00;5073356;28;20036;-80
2023/08/21 10:07:49;;;;;;;20.70;15.65;;;;;;;29.77;97.07;93282.16;5077827;28;20532;-80
2023/08/21 10:10:15;;;;;;;26.25;17.65;;;;;;;29.81;93.90;93274.84;5078823;28;20039;-81
2023/08/21 10:12:41;;;;;;;24.15;15.77;;;;;;;29.96;96.50;93283.66;5073556;28;20401;-81
2023/08/21 10:15:11;;;;;;;24.45;16.08;;;;;;;29.82;97.42;93279.06;5073232;28;20035;-82
2023/08/21 10:17:41;;;;;;;28.30;17.30;;;;;;;29.72;95.53;93282.53;5063628;28;20116;-81
2023/08/21 10:20:07;;;;;;;27.13;16.55;;;;;;;29.68;97.52;93277.16;5069929;28;20033;-82
2023/08/21 10:22:44;;;;;;;23.05;16.30;;;;;;;29.86;97.60;93281.78;5083060;28;20405;-79
2023/08/21 10:25:23;;;;;;;25.77;17.73;;;;;;;30.09;93.37;93282.09;5077331;28;20501;-83
2023/08/21 10:28:03;;;;;;;23.55;17.30;;;;;;;30.13;91.82;93284.78;5083596;28;20501;-80
2023/08/21 10:30:30;;;;;;;22.15;16.35;;;;;;;30.28;94.24;93274.72;5061297;28;20564;-82
2023/08/21 10:32:57;;;;;;;23.25;16.30;;;;;;;30.56;89.53;93267.66;5078944;28;20032;-80
2023/08/21 10:35:24;;;;;;;19.58;14.88;;;;;;;30.51;89.44;93266.13;5053911;28;20031;-80
2023/08/21 10:38:15;;;;;;;22.77;17.30;;;;;;;30.25;87.69;93268.13;5083721;28;20139;-83
2023/08/21 10:41:07;;;;;;;22.15;13.60;;;;;;;30.28;89.80;93274.72;5086318;28;20103;-82
2023/08/21 10:43:43;;;;;;;20.73;14.50;;;;;;;30.48;92.38;93270.38;5073772;28;20052;-84
2023/08/21 10:46:11;;;;;;;29.52;15.13;;;;;;;30.72;85.89;93276.06;5087642;28;20028;-83
2023/08/21 10:48:37;;;;;;;20.33;15.20;;;;;;;30.45;86.54;93268.47;5056258;28;20016;-81
2023/08/21 10:51:18;;;;;;;24.38;14.43;;;;;;;30.47;86.18;93266.16;5076236;28;20048;-84
2023/08/21 10:53:44;;;;;;;23.85;15.38;;;;;;;30.16;85.72;93267.03;5074682;28;20040;-80
2023/08/21 10:56:10;;;;;;;20.90;15.57;;;;;;;30.29;85.93;93260.81;5057467;28;20047;-83
2023/08/21 10:58:42;;;;;;;20.38;15.25;;;;;;;30.25;86.63;93265.44;5076484;28;20406;-81
2023/08/21 11:01:08;;;;;;;22.60;15.13;;;;;;;30.24;85.27;93263.91;5059536;28;20044;-82
2023/08/21 11:03:34;;;;;;;19.13;14.45;;;;;;;30.49;87.33;93258.44;5079386;28;20047;-83
2023/08/21 11:06:05;;;;;;;21.13;14.38;;;;;;;30.37;86.27;93258.84;5072229;28;20036;-84
2023/08/21 11:08:33;;;;;;;24.58;14.88;;;;;;;30.29;84.03;93273.56;5052488;28;20028;-80
2023/08/21 11:11:00;;;;;;;16.08;12.45;;;;;;;30.20;81.91;93262.38;5071837;28;20036;-81
2023/08/21 11:13:25;;;;;;;21.67;14.70;;;;;;;29.96;83.06;93264.00;5073089;28;20059;-81